createdAt,value
2023-02-16T00:00:46.323Z,112.90
2023-02-16T00:03:20.619Z,106.90
2023-02-16T00:05:56.643Z,105.50
2023-02-16T00:08:29.302Z,112.60
2023-02-16T00:11:18.941Z,108.30
2023-02-16T00:13:53.420Z,109.30
2023-02-16T00:16:27.364Z,107.10
2023-02-16T00:18:59.932Z,111.00
2023-02-16T00:21:33.074Z,107.00
2023-02-16T00:24:06.105Z,111.20
2023-02-16T00:26:39.024Z,112.00
2023-02-16T00:29:16.884Z,107.80
2023-02-16T00:31:51.407Z,107.10
2023-02-16T00:34:33.090Z,110.00
2023-02-16T00:37:07.092Z,111.00
2023-02-16T00:39:41.909Z,103.50
2023-02-16T00:42:20.174Z,107.60
2023-02-16T00:44:55.753Z,106.20
2023-02-16T00:47:39.783Z,105.10
2023-02-16T00:52:51.569Z,95.20
2023-02-16T00:55:28.060Z,102.10
2023-02-16T00:58:09.180Z,101.30
2023-02-16T01:00:45.183Z,97.10
2023-02-16T01:03:20.904Z,90.00
2023-02-16T01:06:14.278Z,90.60
2023-02-16T01:09:04.436Z,96.70
2023-02-16T01:11:39.726Z,93.50
2023-02-16T01:14:18.036Z,89.80
2023-02-16T01:16:51.369Z,86.20
2023-02-16T01:19:23.865Z,88.60
2023-02-16T01:21:57.993Z,84.20
2023-02-16T01:24:35.235Z,86.80
2023-02-16T01:27:11.763Z,81.60
2023-02-16T01:29:45.107Z,82.70
2023-02-16T01:32:17.966Z,81.50
2023-02-16T01:34:50.532Z,82.10
2023-02-16T01:37:24.015Z,66.00
2023-02-16T01:40:30.376Z,80.70
2023-02-16T01:43:15.526Z,86.00
2023-02-16T01:45:53.712Z,84.90
2023-02-16T01:48:29.554Z,80.50
2023-02-16T01:51:10.567Z,85.90
2023-02-16T01:53:50.466Z,83.40
2023-02-16T01:56:32.337Z,79.00
2023-02-16T01:59:13.177Z,82.10
2023-02-16T02:01:53.271Z,83.70
2023-02-16T02:04:48.699Z,86.00
2023-02-16T02:07:28.629Z,87.40
2023-02-16T02:10:08.757Z,86.50
2023-02-16T02:12:48.503Z,93.00
2023-02-16T02:15:27.448Z,86.60
2023-02-16T02:18:01.508Z,88.20
2023-02-16T02:21:10.494Z,89.90
2023-02-16T02:23:57.596Z,88.90
2023-02-16T02:27:01.417Z,85.30
2023-02-16T02:30:03.665Z,85.80
2023-02-16T02:32:51.302Z,83.40
2023-02-16T02:35:38.268Z,84.50
2023-02-16T02:38:17.593Z,81.10
2023-02-16T02:41:00.595Z,85.10
2023-02-16T02:46:13.582Z,78.40
2023-02-16T02:48:46.817Z,79.90
2023-02-16T02:51:34.047Z,78.60
2023-02-16T02:54:38.437Z,72.80
2023-02-16T02:57:46.443Z,75.80
2023-02-16T03:00:39.776Z,73.60
2023-02-16T03:03:19.211Z,72.70
2023-02-16T03:05:56.690Z,79.70
2023-02-16T03:08:36.909Z,75.70
2023-02-16T03:11:31.778Z,81.90
2023-02-16T03:14:10.988Z,72.90
2023-02-16T03:16:46.785Z,71.40
2023-02-16T03:19:38.669Z,70.60
2023-02-16T03:22:29.366Z,70.40
2023-02-16T03:25:19.045Z,69.80
2023-02-16T03:28:09.278Z,69.40
2023-02-16T03:30:43.816Z,74.10
2023-02-16T03:33:18.105Z,68.70
2023-02-16T03:35:51.434Z,66.20
2023-02-16T03:38:27.368Z,66.80
2023-02-16T03:41:00.622Z,63.30
2023-02-16T03:43:34.311Z,65.20
2023-02-16T03:46:07.854Z,62.00
2023-02-16T03:48:41.394Z,66.00
2023-02-16T03:51:14.233Z,71.30
2023-02-16T03:53:50.454Z,63.30
2023-02-16T03:56:24.724Z,70.50
2023-02-16T03:58:59.470Z,61.80
2023-02-16T04:01:32.034Z,60.20
2023-02-16T04:04:05.083Z,61.90
2023-02-16T04:06:39.386Z,72.20
2023-02-16T04:09:12.617Z,62.20
2023-02-16T04:12:02.308Z,59.60
2023-02-16T04:14:35.049Z,60.30
2023-02-16T04:17:07.537Z,65.10
2023-02-16T04:19:40.582Z,50.80
2023-02-16T04:22:13.169Z,61.60
2023-02-16T04:24:45.870Z,63.20
2023-02-16T04:27:18.683Z,60.50
2023-02-16T04:29:51.310Z,62.40
2023-02-16T04:32:24.607Z,69.80
2023-02-16T04:34:57.301Z,64.20
2023-02-16T04:37:30.400Z,62.80
2023-02-16T04:40:03.233Z,62.00
2023-02-16T04:42:35.816Z,63.80
2023-02-16T04:45:09.369Z,58.70
2023-02-16T04:47:44.633Z,55.40
2023-02-16T04:50:17.466Z,63.80
2023-02-16T04:52:50.002Z,59.60
2023-02-16T04:55:23.232Z,64.70
2023-02-16T04:57:58.692Z,59.20
2023-02-16T05:00:31.388Z,58.70
2023-02-16T05:03:04.306Z,47.30
2023-02-16T05:05:37.112Z,59.40
2023-02-16T05:08:10.022Z,40.70
2023-02-16T05:10:43.906Z,60.60
2023-02-16T05:13:33.975Z,59.40
2023-02-16T05:16:07.130Z,54.20
2023-02-16T05:18:39.783Z,50.50
2023-02-16T05:21:30.391Z,46.30
2023-02-16T05:24:03.765Z,55.40
2023-02-16T05:26:37.807Z,50.90
2023-02-16T05:29:10.960Z,54.40
2023-02-16T05:31:46.124Z,42.30
2023-02-16T05:34:18.551Z,51.40
2023-02-16T05:36:51.083Z,49.00
2023-02-16T05:39:24.269Z,51.90
2023-02-16T05:41:57.206Z,55.30
2023-02-16T05:44:30.099Z,50.80
2023-02-16T05:47:03.134Z,51.30
2023-02-16T05:49:36.236Z,40.40
2023-02-16T05:52:09.563Z,54.20
2023-02-16T05:54:41.827Z,49.90
2023-02-16T05:57:14.889Z,50.70
2023-02-16T05:59:48.751Z,50.60
2023-02-16T06:02:22.153Z,50.60
2023-02-16T06:04:54.739Z,48.80
2023-02-16T06:07:27.660Z,46.00
2023-02-16T06:10:00.410Z,44.70
2023-02-16T06:12:34.924Z,45.30
2023-02-16T06:15:07.845Z,49.90
2023-02-16T06:17:40.880Z,53.10
2023-02-16T06:20:14.939Z,35.20
2023-02-16T06:22:47.663Z,46.50
2023-02-16T06:25:21.160Z,50.40
2023-02-16T06:27:54.104Z,50.50
2023-02-16T06:30:27.222Z,48.80
2023-02-16T06:32:59.809Z,44.10
2023-02-16T06:35:32.821Z,52.70
2023-02-16T06:38:05.679Z,52.40
2023-02-16T06:40:38.078Z,57.10
2023-02-16T06:43:10.580Z,51.20
2023-02-16T06:45:42.969Z,49.60
2023-02-16T06:48:15.749Z,56.40
2023-02-16T06:50:48.810Z,53.90
2023-02-16T06:53:22.065Z,38.80
2023-02-16T06:55:55.598Z,51.70
2023-02-16T07:01:00.902Z,55.10
2023-02-16T07:03:34.305Z,56.60
2023-02-16T07:06:07.573Z,54.70
2023-02-16T07:08:41.538Z,43.30
2023-02-16T07:11:14.356Z,55.20
2023-02-16T07:13:47.407Z,55.20
2023-02-16T07:16:20.339Z,52.50
2023-02-16T07:18:53.104Z,52.70
2023-02-16T07:21:25.607Z,54.80
2023-02-16T07:23:59.737Z,48.20
2023-02-16T07:26:32.718Z,53.60
2023-02-16T07:29:05.500Z,53.10
2023-02-16T07:31:39.621Z,50.20
2023-02-16T07:34:12.444Z,55.40
2023-02-16T07:36:46.063Z,55.00
2023-02-16T07:41:49.706Z,51.40
2023-02-16T07:44:24.104Z,49.90
2023-02-16T07:46:56.406Z,47.10
2023-02-16T07:49:29.693Z,45.10
2023-02-16T07:52:02.835Z,38.50
2023-02-16T07:54:37.103Z,54.10
2023-02-16T07:57:10.893Z,51.10
2023-02-16T08:02:21.446Z,52.70
2023-02-16T08:04:54.252Z,49.00
2023-02-16T08:07:28.562Z,51.80
2023-02-16T08:10:04.242Z,50.50
2023-02-16T08:12:37.215Z,52.50
2023-02-16T08:15:11.127Z,50.30
2023-02-16T08:17:44.166Z,45.70
2023-02-16T08:20:18.097Z,52.50
2023-02-16T08:22:50.579Z,49.50
2023-02-16T08:25:23.446Z,45.00
2023-02-16T08:27:56.025Z,53.10
2023-02-16T08:30:29.085Z,47.90
2023-02-16T08:33:02.436Z,47.10
2023-02-16T08:35:39.263Z,47.20
2023-02-16T08:38:11.730Z,50.00
2023-02-16T08:40:49.194Z,49.80
2023-02-16T08:43:21.822Z,49.20
2023-02-16T08:45:54.588Z,46.60
2023-02-16T08:48:29.171Z,48.00
2023-02-16T08:51:01.791Z,51.10
2023-02-16T08:53:36.367Z,50.70
2023-02-16T08:56:10.205Z,50.60
2023-02-16T08:58:43.554Z,47.00
2023-02-16T09:01:16.955Z,46.70
2023-02-16T09:03:50.562Z,48.60
2023-02-16T09:08:58.024Z,49.20
2023-02-16T09:11:30.757Z,46.70
2023-02-16T09:14:04.156Z,47.90
2023-02-16T09:19:10.003Z,48.50
2023-02-16T09:21:43.384Z,47.10
2023-02-16T09:24:16.839Z,48.80
2023-02-16T09:26:50.148Z,47.30
2023-02-16T09:29:23.637Z,42.00
2023-02-16T09:31:58.084Z,43.10
2023-02-16T09:34:30.773Z,43.00
2023-02-16T09:37:03.449Z,44.50
2023-02-16T09:39:36.523Z,46.50
2023-02-16T09:42:28.892Z,44.20
2023-02-16T09:45:07.929Z,43.70
2023-02-16T09:47:45.261Z,47.70
2023-02-16T09:50:38.229Z,43.80
2023-02-16T09:53:22.846Z,48.70
2023-02-16T09:56:06.833Z,45.80
2023-02-16T09:58:47.053Z,46.30
2023-02-16T10:01:32.094Z,45.40
2023-02-16T10:04:25.562Z,45.60
2023-02-16T10:07:06.592Z,48.90
2023-02-16T10:09:40.732Z,48.70
2023-02-16T10:12:17.033Z,46.40
2023-02-16T10:14:52.609Z,50.30
2023-02-16T10:17:30.871Z,48.70
2023-02-16T10:20:06.961Z,48.70
2023-02-16T10:22:43.564Z,48.10
2023-02-16T10:25:20.876Z,49.20
2023-02-16T10:28:00.743Z,51.70
2023-02-16T10:30:35.126Z,44.40
2023-02-16T10:33:17.211Z,42.90
2023-02-16T10:35:54.303Z,47.20
2023-02-16T10:38:37.101Z,42.00
2023-02-16T10:41:19.472Z,42.90
2023-02-16T10:43:59.127Z,44.00
2023-02-16T10:46:38.022Z,44.90
2023-02-16T10:49:14.823Z,40.30
2023-02-16T10:51:52.022Z,43.60
2023-02-16T10:54:28.675Z,44.90
2023-02-16T10:57:02.950Z,41.70
2023-02-16T10:59:42.160Z,44.50
2023-02-16T11:02:24.846Z,47.40
2023-02-16T11:04:59.280Z,43.50
2023-02-16T11:07:34.228Z,44.20
2023-02-16T11:10:24.624Z,45.60
2023-02-16T11:13:00.573Z,42.50
2023-02-16T11:15:34.562Z,46.50
2023-02-16T11:18:13.443Z,42.50
2023-02-16T11:20:57.840Z,42.60
2023-02-16T11:23:32.377Z,44.40
2023-02-16T11:26:09.714Z,42.80
2023-02-16T11:28:44.751Z,43.10
2023-02-16T11:31:21.653Z,40.70
2023-02-16T11:34:05.954Z,36.60
2023-02-16T11:36:41.615Z,36.30
2023-02-16T11:39:22.952Z,39.90
2023-02-16T11:42:01.790Z,38.50
2023-02-16T11:44:39.954Z,36.70
2023-02-16T11:47:26.589Z,39.00
2023-02-16T11:50:21.984Z,41.80
2023-02-16T11:52:57.772Z,64.00
2023-02-16T11:55:34.250Z,184.00
2023-02-16T11:58:21.956Z,62.90
2023-02-16T12:01:18.642Z,44.40
2023-02-16T12:04:05.307Z,38.30
2023-02-16T12:06:54.377Z,35.30
2023-02-16T12:09:41.286Z,33.60
2023-02-16T12:12:20.242Z,33.70
2023-02-16T12:15:03.941Z,35.60
2023-02-16T12:20:43.784Z,35.00
2023-02-16T12:23:36.493Z,35.90
2023-02-16T12:26:35.811Z,37.00
2023-02-16T12:29:22.157Z,33.30
2023-02-16T12:32:08.386Z,32.90
2023-02-16T12:34:55.983Z,36.90
2023-02-16T12:37:38.162Z,37.10
2023-02-16T12:40:22.453Z,34.60
2023-02-16T12:43:05.089Z,33.90
2023-02-16T12:45:46.238Z,32.30
2023-02-16T12:48:31.771Z,35.10
2023-02-16T12:51:08.206Z,37.20
2023-02-16T12:53:49.351Z,36.30
2023-02-16T12:56:26.989Z,33.00
2023-02-16T12:59:16.950Z,32.70
2023-02-16T13:01:54.003Z,33.30
2023-02-16T13:04:36.561Z,32.00
2023-02-16T13:07:18.547Z,36.70
2023-02-16T13:09:59.575Z,33.30
2023-02-16T13:12:38.018Z,40.40
2023-02-16T13:15:18.578Z,33.40
2023-02-16T13:17:57.867Z,33.50
2023-02-16T13:20:31.067Z,35.30
2023-02-16T13:23:39.540Z,36.60
2023-02-16T13:26:38.318Z,38.40
2023-02-16T13:29:37.897Z,37.10
2023-02-16T13:32:38.921Z,50.30
2023-02-16T13:35:31.556Z,42.10
2023-02-16T13:38:19.369Z,37.30
2023-02-16T13:41:30.669Z,40.30
2023-02-16T13:44:09.202Z,34.60
2023-02-16T13:46:44.948Z,35.90
2023-02-16T13:49:36.689Z,38.20
2023-02-16T13:52:12.040Z,38.90
2023-02-16T13:54:45.447Z,37.80
2023-02-16T13:57:39.000Z,35.60
2023-02-16T14:00:30.929Z,37.20
2023-02-16T14:03:05.289Z,37.30
2023-02-16T14:05:43.728Z,36.50
2023-02-16T14:08:28.433Z,38.40
2023-02-16T14:11:07.180Z,35.90
2023-02-16T14:13:52.110Z,39.50
2023-02-16T14:16:37.402Z,34.90
2023-02-16T14:19:25.253Z,38.40
2023-02-16T14:22:10.399Z,36.20
2023-02-16T14:24:44.953Z,39.20
2023-02-16T14:27:38.894Z,39.40
2023-02-16T14:30:22.128Z,38.30
2023-02-16T14:33:02.871Z,33.90
2023-02-16T14:35:38.368Z,34.90
2023-02-16T14:38:22.503Z,34.30
2023-02-16T14:41:06.851Z,34.40
2023-02-16T14:43:46.206Z,34.30
2023-02-16T14:46:47.963Z,36.90
2023-02-16T14:50:09.619Z,36.40
2023-02-16T14:53:02.237Z,35.00
2023-02-16T14:56:11.922Z,41.40
2023-02-16T14:58:53.641Z,40.00
2023-02-16T15:01:26.555Z,36.20
2023-02-16T15:04:00.392Z,37.70
2023-02-16T15:06:38.272Z,36.20
2023-02-16T15:09:19.913Z,38.20
2023-02-16T15:12:12.305Z,36.70
2023-02-16T15:14:49.837Z,34.20
2023-02-16T15:17:31.812Z,37.00
2023-02-16T15:20:11.180Z,37.00
2023-02-16T15:22:52.837Z,39.90
2023-02-16T15:25:29.951Z,38.40
2023-02-16T15:28:06.027Z,40.20
2023-02-16T15:30:41.618Z,38.40
2023-02-16T15:33:27.760Z,40.20
2023-02-16T15:36:03.296Z,38.70
2023-02-16T15:38:38.330Z,40.60
2023-02-16T15:41:16.299Z,41.90
2023-02-16T15:43:51.345Z,40.30
2023-02-16T15:46:31.032Z,41.10
2023-02-16T15:49:15.417Z,43.50
2023-02-16T15:51:48.225Z,41.50
2023-02-16T15:54:27.248Z,45.20
2023-02-16T15:57:02.124Z,39.10
2023-02-16T15:59:40.407Z,42.70
2023-02-16T16:02:22.636Z,43.70
2023-02-16T16:04:59.678Z,41.80
2023-02-16T16:07:36.136Z,43.40
2023-02-16T16:10:26.749Z,47.90
2023-02-16T16:13:04.012Z,45.70
2023-02-16T16:15:42.113Z,43.90
2023-02-16T16:18:39.507Z,40.90
2023-02-16T16:21:26.212Z,46.50
2023-02-16T16:24:04.506Z,46.80
2023-02-16T16:26:51.927Z,45.70
2023-02-16T16:29:39.226Z,50.50
2023-02-16T16:32:23.074Z,47.00
2023-02-16T16:34:56.537Z,50.60
2023-02-16T16:37:35.259Z,45.00
2023-02-16T16:40:22.494Z,51.60
2023-02-16T16:43:13.746Z,45.90
2023-02-16T16:45:48.914Z,53.10
2023-02-16T16:48:27.747Z,50.50
2023-02-16T16:51:16.506Z,49.10
2023-02-16T16:53:55.702Z,48.50
2023-02-16T16:56:29.684Z,52.20
2023-02-16T16:59:05.028Z,50.30
2023-02-16T17:01:41.890Z,52.30
2023-02-16T17:04:16.067Z,55.90
2023-02-16T17:06:50.465Z,53.70
2023-02-16T17:09:23.155Z,53.20
2023-02-16T17:11:57.052Z,57.10
2023-02-16T17:17:03.383Z,57.70
2023-02-16T17:19:37.040Z,58.50
2023-02-16T17:24:50.416Z,56.60
2023-02-16T17:27:23.482Z,60.10
2023-02-16T17:30:03.004Z,61.10
2023-02-16T17:32:37.615Z,59.60
2023-02-16T17:35:12.372Z,61.10
2023-02-16T17:37:52.103Z,56.90
2023-02-16T17:40:34.203Z,63.90
2023-02-16T17:43:15.257Z,62.00
2023-02-16T17:45:49.432Z,82.70
2023-02-16T17:48:25.706Z,77.10
2023-02-16T17:51:04.646Z,86.80
2023-02-16T17:53:38.540Z,70.70
2023-02-16T17:56:15.269Z,68.50
2023-02-16T17:58:53.530Z,58.10
2023-02-16T18:01:35.485Z,66.80
2023-02-16T18:04:11.375Z,61.90
2023-02-16T18:06:46.878Z,62.00
2023-02-16T18:09:24.720Z,70.50
2023-02-16T18:11:58.663Z,62.30
2023-02-16T18:14:32.102Z,63.30
2023-02-16T18:17:04.893Z,52.10
2023-02-16T18:19:37.444Z,67.50
2023-02-16T18:22:12.581Z,64.40
2023-02-16T18:24:45.442Z,65.80
2023-02-16T18:27:21.831Z,66.70
2023-02-16T18:29:54.701Z,63.90
2023-02-16T18:32:27.636Z,67.50
2023-02-16T18:35:02.432Z,67.40
2023-02-16T18:37:35.917Z,69.00
2023-02-16T18:40:21.631Z,78.10
2023-02-16T18:42:59.470Z,86.40
2023-02-16T18:45:33.738Z,77.10
2023-02-16T18:48:07.400Z,72.70
2023-02-16T18:50:44.241Z,65.80
2023-02-16T18:53:21.638Z,69.90
2023-02-16T18:55:55.943Z,72.20
2023-02-16T18:58:37.006Z,65.60
2023-02-16T19:01:18.397Z,63.60
2023-02-16T19:03:53.380Z,61.90
2023-02-16T19:06:30.191Z,69.00
2023-02-16T19:09:05.393Z,68.10
2023-02-16T19:11:39.930Z,68.10
2023-02-16T19:14:17.980Z,68.10
2023-02-16T19:16:54.220Z,72.40
2023-02-16T19:19:30.189Z,66.50
2023-02-16T19:22:03.924Z,71.20
2023-02-16T19:24:38.834Z,69.80
2023-02-16T19:27:11.473Z,68.80
2023-02-16T19:29:44.301Z,65.70
2023-02-16T19:32:19.470Z,69.60
2023-02-16T19:34:52.382Z,64.40
2023-02-16T19:37:25.490Z,74.80
2023-02-16T19:39:58.257Z,70.90
2023-02-16T19:42:32.568Z,65.80
2023-02-16T19:45:05.446Z,65.40
2023-02-16T19:47:38.894Z,63.10
2023-02-16T19:50:12.833Z,64.60
2023-02-16T19:52:45.632Z,63.50
2023-02-16T19:55:18.970Z,66.60
2023-02-16T19:57:51.518Z,62.70
2023-02-16T20:00:24.245Z,63.20
2023-02-16T20:02:58.518Z,61.60
2023-02-16T20:05:32.975Z,62.80
2023-02-16T20:08:07.017Z,63.90
2023-02-16T20:10:44.345Z,66.00
2023-02-16T20:13:17.672Z,67.40
2023-02-16T20:15:51.809Z,58.10
2023-02-16T20:18:25.046Z,62.30
2023-02-16T20:21:04.547Z,61.40
2023-02-16T20:23:37.695Z,63.90
2023-02-16T20:26:13.236Z,63.50
2023-02-16T20:28:46.496Z,62.00
2023-02-16T20:31:22.449Z,64.10
2023-02-16T20:33:56.019Z,67.10
2023-02-16T20:36:28.968Z,65.20
2023-02-16T20:39:05.108Z,61.80
2023-02-16T20:41:38.467Z,60.30
2023-02-16T20:44:14.907Z,66.60
2023-02-16T20:46:47.961Z,62.40
2023-02-16T20:49:20.765Z,63.70
2023-02-16T20:51:53.584Z,62.10
2023-02-16T20:54:28.454Z,63.80
2023-02-16T20:57:01.999Z,66.50
2023-02-16T20:59:38.812Z,62.30
2023-02-16T21:02:13.939Z,67.60
2023-02-16T21:04:46.362Z,65.40
2023-02-16T21:07:19.015Z,62.20
2023-02-16T21:09:51.593Z,68.30
2023-02-16T21:12:24.343Z,74.10
2023-02-16T21:15:00.055Z,63.90
2023-02-16T21:17:34.668Z,59.80
2023-02-16T21:20:08.043Z,62.40
2023-02-16T21:22:40.699Z,65.00
2023-02-16T21:25:13.643Z,58.70
2023-02-16T21:27:46.686Z,61.10
2023-02-16T21:30:19.737Z,60.50
2023-02-16T21:32:55.694Z,67.30
2023-02-16T21:35:29.677Z,61.80
2023-02-16T21:40:51.054Z,49.70
2023-02-16T21:43:23.883Z,59.10
2023-02-16T21:46:03.926Z,69.50
2023-02-16T21:48:48.788Z,61.90
2023-02-16T21:51:24.542Z,61.50
2023-02-16T21:53:58.465Z,59.70
2023-02-16T21:56:39.320Z,55.80
2023-02-16T21:59:14.083Z,65.70
2023-02-16T22:01:51.366Z,62.40
2023-02-16T22:04:25.741Z,61.10
2023-02-16T22:06:58.509Z,62.10
2023-02-16T22:09:30.920Z,46.60
2023-02-16T22:12:03.578Z,64.00
2023-02-16T22:14:36.484Z,58.00
2023-02-16T22:17:11.798Z,55.50
2023-02-16T22:19:44.243Z,58.40
2023-02-16T22:22:16.994Z,59.40
2023-02-16T22:24:50.953Z,56.10
2023-02-16T22:27:23.644Z,61.90
2023-02-16T22:29:57.501Z,59.90
2023-02-16T22:32:30.066Z,56.50
2023-02-16T22:35:06.549Z,59.20
2023-02-16T22:37:39.149Z,59.30
2023-02-16T22:40:15.276Z,58.70
2023-02-16T22:42:47.817Z,57.20
2023-02-16T22:45:20.838Z,57.50
2023-02-16T22:47:54.102Z,65.80
2023-02-16T22:50:26.917Z,62.40
2023-02-16T22:52:59.581Z,60.00
2023-02-16T22:55:32.602Z,59.50
2023-02-16T22:58:05.247Z,58.90
2023-02-16T23:00:37.738Z,54.60
2023-02-16T23:03:10.237Z,58.50
2023-02-16T23:05:42.797Z,61.60
2023-02-16T23:08:15.958Z,59.30
2023-02-16T23:11:01.241Z,43.30
2023-02-16T23:13:35.639Z,55.20
2023-02-16T23:16:13.763Z,61.00
2023-02-16T23:18:47.207Z,56.20
2023-02-16T23:21:39.531Z,52.50
2023-02-16T23:24:16.338Z,56.20
2023-02-16T23:26:49.445Z,59.80
2023-02-16T23:29:24.714Z,57.20
2023-02-16T23:31:57.326Z,58.60
2023-02-16T23:34:29.758Z,61.20
2023-02-16T23:37:02.650Z,61.30
2023-02-16T23:39:35.174Z,48.70
2023-02-16T23:42:08.486Z,61.20
2023-02-16T23:44:40.914Z,59.30
2023-02-16T23:47:13.674Z,58.30
2023-02-16T23:49:46.234Z,60.10
2023-02-16T23:52:19.289Z,60.60
2023-02-16T23:54:52.123Z,55.10
2023-02-16T23:57:25.578Z,58.60
2023-02-16T23:59:58.614Z,61.70
